TAF Text Data
IDs:
Format:
Raw Decoded Include METAR

Data at: 1224 UTC 17 Sep 2019

KATL 171120Z 1712/1818 33006KT P6SM SKC
  FM171800 32008KT P6SM SCT070 SCT250
  FM180700 01006KT P6SM SCT050 SCT250
  FM181000 06010KT P6SM FEW025 SCT050
  FM181500 09012G18KT P6SM SCT025 SCT050